createdAt,value
2022-11-24T00:01:33.102Z,4.83
2022-11-24T00:04:04.372Z,2.80
2022-11-24T00:06:35.668Z,3.37
2022-11-24T00:09:05.028Z,3.13
2022-11-24T00:11:35.777Z,3.90
2022-11-24T00:14:04.803Z,2.07
2022-11-24T00:16:36.316Z,2.30
2022-11-24T00:19:09.473Z,2.63
2022-11-24T00:21:38.316Z,3.60
2022-11-24T00:24:06.423Z,3.07
2022-11-24T00:26:37.452Z,4.03
2022-11-24T00:29:07.956Z,3.23
2022-11-24T00:31:41.764Z,2.70
2022-11-24T00:34:14.207Z,3.03
2022-11-24T00:36:42.874Z,4.40
2022-11-24T00:39:15.865Z,3.90
2022-11-24T00:41:44.056Z,3.37
2022-11-24T00:44:11.394Z,3.00
2022-11-24T00:46:38.744Z,3.47
2022-11-24T00:49:06.330Z,2.93
2022-11-24T00:51:33.665Z,4.27
2022-11-24T00:54:02.115Z,2.47
2022-11-24T00:56:30.218Z,3.77
2022-11-24T00:58:57.758Z,3.80
2022-11-24T01:01:28.843Z,2.80
2022-11-24T01:03:56.687Z,2.83
2022-11-24T01:06:26.402Z,3.13
2022-11-24T01:08:54.278Z,2.63
2022-11-24T01:11:29.827Z,3.00
2022-11-24T01:13:59.789Z,3.87
2022-11-24T01:16:33.380Z,2.07
2022-11-24T01:19:03.790Z,3.00
2022-11-24T01:21:30.998Z,3.33
2022-11-24T01:23:58.375Z,3.50
2022-11-24T01:26:25.587Z,3.13
2022-11-24T01:28:58.470Z,2.90
2022-11-24T01:31:28.011Z,2.43
2022-11-24T01:33:55.542Z,2.80
2022-11-24T01:36:23.180Z,2.43
2022-11-24T01:38:50.687Z,3.20
2022-11-24T01:41:22.063Z,2.37
2022-11-24T01:43:51.724Z,3.00
2022-11-24T01:46:48.382Z,1.90
2022-11-24T01:49:36.658Z,2.97
2022-11-24T01:52:23.139Z,2.80
2022-11-24T01:55:02.040Z,2.53
2022-11-24T01:58:16.020Z,2.47
2022-11-24T02:00:45.961Z,3.57
2022-11-24T02:03:20.450Z,1.70
2022-11-24T02:06:05.237Z,2.70
2022-11-24T02:08:53.171Z,2.70
2022-11-24T02:11:24.222Z,3.27
2022-11-24T02:13:54.300Z,5.10
2022-11-24T02:16:21.512Z,4.63
2022-11-24T02:18:48.922Z,4.00
2022-11-24T02:21:17.066Z,2.77
2022-11-24T02:24:07.912Z,3.07
2022-11-24T02:26:46.159Z,3.47
2022-11-24T02:29:15.170Z,2.40
2022-11-24T02:31:49.364Z,2.57
2022-11-24T02:34:16.688Z,3.53
2022-11-24T02:36:43.801Z,5.83
2022-11-24T02:39:15.855Z,3.60
2022-11-24T02:41:53.909Z,3.80
2022-11-24T02:44:27.844Z,2.93
2022-11-24T02:47:11.723Z,2.57
2022-11-24T02:49:39.179Z,3.40
2022-11-24T02:52:06.907Z,3.37
2022-11-24T02:54:34.616Z,4.03
2022-11-24T02:57:01.935Z,4.07
2022-11-24T02:59:29.217Z,3.77
2022-11-24T03:01:56.422Z,3.77
2022-11-24T03:04:23.787Z,3.90
2022-11-24T03:06:51.106Z,3.70
2022-11-24T03:09:18.321Z,4.17
2022-11-24T03:11:45.483Z,4.47
2022-11-24T03:14:12.637Z,2.63
2022-11-24T03:16:39.771Z,3.80
2022-11-24T03:19:06.992Z,3.97
2022-11-24T03:21:36.671Z,2.70
2022-11-24T03:24:04.217Z,3.67
2022-11-24T03:26:31.324Z,4.93
2022-11-24T03:28:58.423Z,4.73
2022-11-24T03:31:25.820Z,4.10
2022-11-24T03:33:52.971Z,4.93
2022-11-24T03:36:20.134Z,4.13
2022-11-24T03:38:47.270Z,4.40
2022-11-24T03:41:14.464Z,3.80
2022-11-24T03:43:44.034Z,4.73
2022-11-24T03:46:12.692Z,5.20
2022-11-24T03:48:40.373Z,5.30
2022-11-24T03:51:07.703Z,3.50
2022-11-24T03:53:34.881Z,3.30
2022-11-24T03:56:02.783Z,3.03
2022-11-24T03:58:31.088Z,4.70
2022-11-24T04:00:58.362Z,4.70
2022-11-24T04:03:26.482Z,5.13
2022-11-24T04:05:53.765Z,5.30
2022-11-24T04:08:21.186Z,3.10
2022-11-24T04:10:54.777Z,3.80
2022-11-24T04:13:25.445Z,4.00
2022-11-24T04:15:53.499Z,6.17
2022-11-24T04:18:21.042Z,4.60
2022-11-24T04:20:51.997Z,4.93
2022-11-24T04:23:19.839Z,3.73
2022-11-24T04:25:47.161Z,4.03
2022-11-24T04:28:14.280Z,5.80
2022-11-24T04:30:44.879Z,4.47
2022-11-24T04:33:13.033Z,4.97
2022-11-24T04:35:40.196Z,4.13
2022-11-24T04:38:07.352Z,3.23
2022-11-24T04:40:34.916Z,3.40
2022-11-24T04:43:02.040Z,3.27
2022-11-24T04:45:29.174Z,4.27
2022-11-24T04:47:56.322Z,4.37
2022-11-24T04:50:23.442Z,3.90
2022-11-24T04:52:50.551Z,3.97
2022-11-24T04:55:17.809Z,3.83
2022-11-24T04:57:44.898Z,4.43
2022-11-24T05:00:13.022Z,5.40
2022-11-24T05:02:40.209Z,3.37
2022-11-24T05:05:08.400Z,4.67
2022-11-24T05:07:35.537Z,3.23
2022-11-24T05:10:21.458Z,3.40
2022-11-24T05:12:57.262Z,5.00
2022-11-24T05:15:24.371Z,4.37
2022-11-24T05:17:52.022Z,5.13
2022-11-24T05:20:19.735Z,3.13
2022-11-24T05:22:47.080Z,4.57
2022-11-24T05:25:14.468Z,3.50
2022-11-24T05:27:41.601Z,3.10
2022-11-24T05:30:09.527Z,4.90
2022-11-24T05:32:36.585Z,2.63
2022-11-24T05:35:04.550Z,2.33
2022-11-24T05:37:32.107Z,3.07
2022-11-24T05:39:59.178Z,4.70
2022-11-24T05:42:46.773Z,3.23
2022-11-24T05:45:22.002Z,3.03
2022-11-24T05:47:51.495Z,3.30
2022-11-24T05:50:21.028Z,3.13
2022-11-24T05:52:49.345Z,3.47
2022-11-24T05:55:16.897Z,3.80
2022-11-24T05:57:43.994Z,4.73
2022-11-24T06:00:12.287Z,3.20
2022-11-24T06:02:42.434Z,3.50
2022-11-24T06:05:09.693Z,4.50
2022-11-24T06:07:36.823Z,5.53
2022-11-24T06:10:04.934Z,3.13
2022-11-24T06:12:32.470Z,4.07
2022-11-24T06:14:59.535Z,5.00
2022-11-24T06:17:26.608Z,8.00
2022-11-24T06:19:53.837Z,4.07
2022-11-24T06:22:21.021Z,4.80
2022-11-24T06:24:50.237Z,4.40
2022-11-24T06:27:17.727Z,3.13
2022-11-24T06:29:44.892Z,2.73
2022-11-24T06:32:12.074Z,3.33
2022-11-24T06:34:39.230Z,4.00
2022-11-24T06:37:06.907Z,2.90
2022-11-24T06:39:34.012Z,4.63
2022-11-24T06:42:01.367Z,2.40
2022-11-24T06:44:28.441Z,3.60
2022-11-24T06:46:55.522Z,5.97
2022-11-24T06:49:22.634Z,7.93
2022-11-24T06:51:49.816Z,7.63
2022-11-24T06:54:21.103Z,9.90
2022-11-24T06:56:48.503Z,5.87
2022-11-24T06:59:19.610Z,4.40
2022-11-24T07:01:47.593Z,3.17
2022-11-24T07:04:16.094Z,2.50
2022-11-24T07:06:44.019Z,3.20
2022-11-24T07:09:13.341Z,3.00
2022-11-24T07:11:41.049Z,3.83
2022-11-24T07:14:08.672Z,2.37
2022-11-24T07:16:36.850Z,3.63
2022-11-24T07:19:03.940Z,3.30
2022-11-24T07:21:31.051Z,3.70
2022-11-24T07:23:59.085Z,5.60
2022-11-24T07:26:26.920Z,2.93
2022-11-24T07:28:54.464Z,2.53
2022-11-24T07:31:25.141Z,3.87
2022-11-24T07:33:55.167Z,3.40
2022-11-24T07:36:23.241Z,3.33
2022-11-24T07:38:50.728Z,3.43
2022-11-24T07:41:19.752Z,2.57
2022-11-24T07:43:48.582Z,4.60
2022-11-24T07:46:19.127Z,3.47
2022-11-24T07:48:47.240Z,2.97
2022-11-24T07:51:14.846Z,2.63
2022-11-24T07:53:42.338Z,2.87
2022-11-24T07:56:10.361Z,3.00
2022-11-24T07:58:38.330Z,1.90
2022-11-24T08:01:18.067Z,2.77
2022-11-24T08:03:46.741Z,3.13
2022-11-24T08:06:25.059Z,2.50
2022-11-24T08:08:55.335Z,2.37
2022-11-24T08:11:23.184Z,4.30
2022-11-24T08:13:50.431Z,2.60
2022-11-24T08:16:20.352Z,2.17
2022-11-24T08:18:53.966Z,3.37
2022-11-24T08:21:23.439Z,6.80
2022-11-24T08:23:56.124Z,6.23
2022-11-24T08:26:25.066Z,4.47
2022-11-24T08:28:59.558Z,3.60
2022-11-24T08:31:33.682Z,4.00
2022-11-24T08:34:03.777Z,2.77
2022-11-24T08:36:31.333Z,2.47
2022-11-24T08:39:00.757Z,2.47
2022-11-24T08:41:29.417Z,2.60
2022-11-24T08:43:56.535Z,2.10
2022-11-24T08:46:24.027Z,1.70
2022-11-24T08:48:55.459Z,2.23
2022-11-24T08:51:26.529Z,2.00
2022-11-24T08:53:59.288Z,1.53
2022-11-24T08:56:29.207Z,2.63
2022-11-24T08:58:57.459Z,2.10
2022-11-24T09:01:25.207Z,3.30
2022-11-24T09:03:52.722Z,3.57
2022-11-24T09:06:24.824Z,2.47
2022-11-24T09:08:54.713Z,3.70
2022-11-24T09:11:23.138Z,2.90
2022-11-24T09:13:51.148Z,2.43
2022-11-24T09:16:22.745Z,1.83
2022-11-24T09:18:59.758Z,1.80
2022-11-24T09:21:28.369Z,2.83
2022-11-24T09:23:56.394Z,2.07
2022-11-24T09:26:30.227Z,2.10
2022-11-24T09:28:59.603Z,3.47
2022-11-24T09:31:31.400Z,2.70
2022-11-24T09:33:59.516Z,2.60
2022-11-24T09:36:27.166Z,1.50
2022-11-24T09:38:55.317Z,1.63
2022-11-24T09:41:53.043Z,1.70
2022-11-24T09:44:56.535Z,2.57
2022-11-24T09:47:59.202Z,3.30
2022-11-24T09:50:36.370Z,1.87
2022-11-24T09:53:24.468Z,1.80
2022-11-24T09:55:57.855Z,1.63
2022-11-24T09:58:57.614Z,1.97
2022-11-24T10:01:34.004Z,2.10
2022-11-24T10:04:06.288Z,2.23
2022-11-24T10:06:51.933Z,2.70
2022-11-24T10:10:04.527Z,1.33
2022-11-24T10:13:05.045Z,3.03
2022-11-24T10:15:57.371Z,2.03
2022-11-24T10:19:14.539Z,3.10
2022-11-24T10:22:36.983Z,2.47
2022-11-24T10:25:15.803Z,2.50
2022-11-24T10:27:50.356Z,2.67
2022-11-24T10:30:23.931Z,3.43
2022-11-24T10:33:24.306Z,2.70
2022-11-24T10:35:58.526Z,1.80
2022-11-24T10:38:37.299Z,2.60
2022-11-24T10:41:19.601Z,2.80
2022-11-24T10:43:46.728Z,3.87
2022-11-24T10:46:40.513Z,1.80
2022-11-24T10:49:07.888Z,2.13
2022-11-24T10:52:05.791Z,2.10
2022-11-24T10:54:35.960Z,2.40
2022-11-24T10:57:03.313Z,1.70
2022-11-24T10:59:39.549Z,1.90
2022-11-24T11:02:38.205Z,1.43
2022-11-24T11:05:44.578Z,1.73
2022-11-24T11:08:24.345Z,2.00
2022-11-24T11:11:22.031Z,1.97
2022-11-24T11:14:04.566Z,1.87
2022-11-24T11:16:40.596Z,1.60
2022-11-24T11:20:01.572Z,1.90
2022-11-24T11:22:37.131Z,2.27
2022-11-24T11:25:10.024Z,1.73
2022-11-24T11:27:39.639Z,4.03
2022-11-24T11:36:17.141Z,3.70
2022-11-24T11:38:47.086Z,2.03
2022-11-24T11:41:42.450Z,1.43
2022-11-24T11:44:36.912Z,2.57
2022-11-24T11:47:22.617Z,1.50
2022-11-24T11:49:50.412Z,0.70
2022-11-24T11:52:56.759Z,0.70
2022-11-24T11:55:46.571Z,1.10
2022-11-24T11:58:34.596Z,0.70
2022-11-24T12:01:37.954Z,1.00
2022-11-24T12:04:22.887Z,0.77
2022-11-24T12:07:17.723Z,0.60
2022-11-24T12:10:45.494Z,0.50
2022-11-24T12:13:38.512Z,0.77
2022-11-24T12:16:39.123Z,0.40
2022-11-24T12:19:08.838Z,0.80
2022-11-24T12:21:49.444Z,0.90
2022-11-24T12:24:42.932Z,0.80
2022-11-24T12:27:41.371Z,0.40
2022-11-24T12:30:15.846Z,0.50
2022-11-24T12:33:00.337Z,0.60
2022-11-24T12:35:42.800Z,1.17
2022-11-24T12:38:18.671Z,0.80
2022-11-24T12:41:43.089Z,1.03
2022-11-24T12:44:02.134Z,0.63
2022-11-24T12:47:08.659Z,0.70
2022-11-24T12:50:22.378Z,0.70
2022-11-24T12:53:02.180Z,1.00
2022-11-24T12:55:33.802Z,0.57
2022-11-24T12:58:25.440Z,0.83
2022-11-24T13:01:20.062Z,1.53
2022-11-24T13:04:12.984Z,1.80
2022-11-24T13:06:59.266Z,1.00
2022-11-24T13:09:26.383Z,0.90
2022-11-24T13:12:08.506Z,0.60
2022-11-24T13:14:39.547Z,0.60
2022-11-24T13:17:43.542Z,0.80
2022-11-24T13:20:21.260Z,1.00
2022-11-24T13:23:02.730Z,0.47
2022-11-24T13:25:32.924Z,0.80
2022-11-24T13:28:06.663Z,1.40
2022-11-24T13:30:33.680Z,1.53
2022-11-24T13:33:16.471Z,0.93
2022-11-24T13:36:02.411Z,0.70
2022-11-24T13:38:54.019Z,0.90
2022-11-24T13:41:33.292Z,1.30
2022-11-24T13:44:16.052Z,1.20
2022-11-24T13:47:01.760Z,1.43
2022-11-24T13:49:46.445Z,0.90
2022-11-24T13:53:15.683Z,2.00
2022-11-24T13:56:00.125Z,0.90
2022-11-24T13:58:39.556Z,2.33
2022-11-24T14:01:33.112Z,0.80
2022-11-24T14:04:30.606Z,0.83
2022-11-24T14:07:09.642Z,0.80
2022-11-24T14:09:50.305Z,0.50
2022-11-24T14:12:24.576Z,0.60
2022-11-24T14:14:55.780Z,1.37
2022-11-24T14:17:28.506Z,1.90
2022-11-24T14:19:58.277Z,1.53
2022-11-24T14:22:41.545Z,1.50
2022-11-24T14:25:30.441Z,1.50
2022-11-24T14:27:59.202Z,1.20
2022-11-24T14:30:27.079Z,1.53
2022-11-24T14:32:59.918Z,2.10
2022-11-24T14:35:29.867Z,1.30
2022-11-24T14:37:57.662Z,1.83
2022-11-24T14:40:46.899Z,1.70
2022-11-24T14:43:25.941Z,1.60
2022-11-24T14:46:02.176Z,1.80
2022-11-24T14:48:35.805Z,1.30
2022-11-24T14:51:19.325Z,1.10
2022-11-24T14:53:53.716Z,1.50
2022-11-24T14:56:27.989Z,1.10
2022-11-24T14:58:57.656Z,0.83
2022-11-24T15:01:27.870Z,1.30
2022-11-24T15:04:54.522Z,2.27
2022-11-24T15:07:24.409Z,1.53
2022-11-24T15:10:01.843Z,1.70
2022-11-24T15:12:36.367Z,2.40
2022-11-24T15:15:16.020Z,1.60
2022-11-24T15:18:25.564Z,1.00
2022-11-24T15:20:53.824Z,1.23
2022-11-24T15:23:25.281Z,1.37
2022-11-24T15:26:17.003Z,1.27
2022-11-24T15:28:46.847Z,2.20
2022-11-24T15:31:15.151Z,3.20
2022-11-24T15:33:42.845Z,1.53
2022-11-24T15:36:12.340Z,2.07
2022-11-24T15:38:39.442Z,3.10
2022-11-24T15:41:22.996Z,1.00
2022-11-24T15:43:50.117Z,0.93
2022-11-24T15:46:17.628Z,1.80
2022-11-24T15:48:44.807Z,1.03
2022-11-24T15:51:15.191Z,1.03
2022-11-24T15:53:54.124Z,1.20
2022-11-24T15:56:36.705Z,1.50
2022-11-24T15:59:04.667Z,2.60
2022-11-24T16:01:33.823Z,2.70
2022-11-24T16:04:02.423Z,2.07
2022-11-24T16:06:29.905Z,2.40
2022-11-24T16:08:58.314Z,1.13
2022-11-24T16:11:25.799Z,1.77
2022-11-24T16:13:54.165Z,2.30
2022-11-24T16:16:24.670Z,1.70
2022-11-24T16:18:52.090Z,3.70
2022-11-24T16:21:19.190Z,1.93
2022-11-24T16:23:46.689Z,2.63
2022-11-24T16:26:13.812Z,1.30
2022-11-24T16:28:40.969Z,1.90
2022-11-24T16:31:09.341Z,1.63
2022-11-24T16:33:40.608Z,1.80
2022-11-24T16:36:08.558Z,1.63
2022-11-24T16:38:35.737Z,1.43
2022-11-24T16:41:02.854Z,3.90
2022-11-24T16:43:30.141Z,1.40
2022-11-24T16:46:20.302Z,2.13
2022-11-24T16:48:50.551Z,1.67
2022-11-24T16:51:23.019Z,1.10
2022-11-24T16:53:58.814Z,1.40
2022-11-24T16:56:27.642Z,1.83
2022-11-24T16:58:55.015Z,2.60
2022-11-24T17:01:22.716Z,2.07
2022-11-24T17:03:49.842Z,4.10
2022-11-24T17:06:17.893Z,2.97
2022-11-24T17:08:47.503Z,3.83
2022-11-24T17:11:18.085Z,1.63
2022-11-24T17:13:47.135Z,1.63
2022-11-24T17:16:17.402Z,2.50
2022-11-24T17:18:46.018Z,3.07
2022-11-24T17:21:22.530Z,2.13
2022-11-24T17:23:58.652Z,1.30
2022-11-24T17:26:27.009Z,1.70
2022-11-24T17:28:56.570Z,2.97
2022-11-24T17:31:40.031Z,1.97
2022-11-24T17:34:08.058Z,2.17
2022-11-24T17:36:35.800Z,2.10
2022-11-24T17:39:07.015Z,1.43
2022-11-24T17:41:34.622Z,1.57
2022-11-24T17:44:02.001Z,1.07
2022-11-24T17:46:30.848Z,1.00
2022-11-24T17:48:58.328Z,0.90
2022-11-24T17:51:27.140Z,1.30
2022-11-24T17:53:55.713Z,2.17
2022-11-24T17:56:27.114Z,1.60
2022-11-24T17:58:57.129Z,2.40
2022-11-24T18:01:24.959Z,2.07
2022-11-24T18:03:53.861Z,2.70
2022-11-24T18:06:24.978Z,2.50
2022-11-24T18:08:53.271Z,4.30
2022-11-24T18:11:32.319Z,3.37
2022-11-24T18:14:02.881Z,1.87
2022-11-24T18:16:34.883Z,2.47
2022-11-24T18:19:09.969Z,0.97
2022-11-24T18:21:41.540Z,1.80
2022-11-24T18:24:10.676Z,2.67
2022-11-24T18:26:42.941Z,2.03
2022-11-24T18:29:11.849Z,1.60
2022-11-24T18:31:39.480Z,2.13
2022-11-24T18:34:07.573Z,2.10
2022-11-24T18:36:35.844Z,1.63
2022-11-24T18:39:08.899Z,1.43
2022-11-24T18:41:36.633Z,1.70
2022-11-24T18:44:07.742Z,1.70
2022-11-24T18:46:35.494Z,1.27
2022-11-24T18:49:02.651Z,1.40
2022-11-24T18:51:30.113Z,1.50
2022-11-24T18:53:58.292Z,1.40
2022-11-24T18:56:26.263Z,1.70
2022-11-24T18:58:55.819Z,1.50
2022-11-24T19:01:28.087Z,2.50
2022-11-24T19:04:02.278Z,3.50
2022-11-24T19:06:38.819Z,3.17
2022-11-24T19:09:16.572Z,2.77
2022-11-24T19:11:46.266Z,4.20
2022-11-24T19:14:17.452Z,3.00
2022-11-24T19:16:47.574Z,3.47
2022-11-24T19:19:16.508Z,2.90
2022-11-24T19:21:44.034Z,3.80
2022-11-24T19:24:11.726Z,2.60
2022-11-24T19:26:39.532Z,2.83
2022-11-24T19:29:07.815Z,2.30
2022-11-24T19:31:35.635Z,2.57
2022-11-24T19:34:03.589Z,2.53
2022-11-24T19:36:31.751Z,2.43
2022-11-24T19:38:59.597Z,2.40
2022-11-24T19:41:30.883Z,2.67
2022-11-24T19:43:59.499Z,2.37
2022-11-24T19:46:29.811Z,2.33
2022-11-24T19:49:02.117Z,1.70
2022-11-24T19:51:36.827Z,3.30
2022-11-24T19:54:07.107Z,2.67
2022-11-24T19:56:36.874Z,2.00
2022-11-24T19:59:06.267Z,2.03
2022-11-24T20:01:38.829Z,2.13
2022-11-24T20:04:08.449Z,3.60
2022-11-24T20:06:39.889Z,2.90
2022-11-24T20:09:10.170Z,3.33
2022-11-24T20:11:38.389Z,3.60
2022-11-24T20:14:07.295Z,2.50
2022-11-24T20:16:35.294Z,2.13
2022-11-24T20:19:10.839Z,2.60
2022-11-24T20:21:39.797Z,2.40
2022-11-24T20:24:12.473Z,2.27
2022-11-24T20:26:48.252Z,1.63
2022-11-24T20:29:16.419Z,2.80
2022-11-24T20:31:48.145Z,1.47
2022-11-24T20:34:16.039Z,1.60
2022-11-24T20:36:45.866Z,0.80
2022-11-24T20:39:18.003Z,1.53
2022-11-24T20:41:45.542Z,1.53
2022-11-24T20:44:16.230Z,1.23
2022-11-24T20:46:45.750Z,1.43
2022-11-24T20:49:19.890Z,1.37
2022-11-24T20:51:47.913Z,1.50
2022-11-24T20:54:17.951Z,0.97
2022-11-24T20:56:46.974Z,1.70
2022-11-24T20:59:21.700Z,1.00
2022-11-24T21:01:50.155Z,1.30
2022-11-24T21:04:22.704Z,1.77
2022-11-24T21:06:50.450Z,1.47
2022-11-24T21:09:18.636Z,1.60
2022-11-24T21:11:46.714Z,1.67
2022-11-24T21:14:14.151Z,2.93
2022-11-24T21:16:43.235Z,1.90
2022-11-24T21:19:14.194Z,1.40
2022-11-24T21:21:42.807Z,1.00
2022-11-24T21:24:17.070Z,1.10
2022-11-24T21:26:51.180Z,1.60
2022-11-24T21:29:21.891Z,1.30
2022-11-24T21:31:49.321Z,1.33
2022-11-24T21:34:21.019Z,1.43
2022-11-24T21:36:48.091Z,1.57
2022-11-24T21:39:16.061Z,1.50
2022-11-24T21:41:43.721Z,3.03
2022-11-24T21:44:13.503Z,1.40
2022-11-24T21:46:46.103Z,0.90
2022-11-24T21:49:16.638Z,1.50
2022-11-24T21:51:43.668Z,3.73
2022-11-24T21:54:10.726Z,1.50
2022-11-24T21:56:37.887Z,1.80
2022-11-24T21:59:04.939Z,0.90
2022-11-24T22:01:32.140Z,1.13
2022-11-24T22:03:59.273Z,1.43
2022-11-24T22:06:26.344Z,1.80
2022-11-24T22:08:54.818Z,1.27
2022-11-24T22:11:24.868Z,1.00
2022-11-24T22:13:52.767Z,1.10
2022-11-24T22:16:24.933Z,1.53
2022-11-24T22:18:52.650Z,2.20
2022-11-24T22:21:33.573Z,2.40
2022-11-24T22:24:01.063Z,3.33
2022-11-24T22:26:29.540Z,4.13
2022-11-24T22:28:58.486Z,1.30
2022-11-24T22:31:31.556Z,3.70
2022-11-24T22:34:00.770Z,2.30
2022-11-24T22:36:30.179Z,2.00
2022-11-24T22:39:03.552Z,1.60
2022-11-24T22:41:34.050Z,1.70
2022-11-24T22:44:01.652Z,2.60
2022-11-24T22:46:31.187Z,2.10
2022-11-24T22:49:00.718Z,2.07
2022-11-24T22:51:32.497Z,2.47
2022-11-24T22:54:02.580Z,2.10
2022-11-24T22:56:32.345Z,3.07
2022-11-24T22:59:04.641Z,1.70
2022-11-24T23:01:36.282Z,1.80
2022-11-24T23:04:03.988Z,2.17
2022-11-24T23:06:33.763Z,1.80
2022-11-24T23:09:04.201Z,1.53
2022-11-24T23:11:38.801Z,1.00
2022-11-24T23:14:15.221Z,2.83
2022-11-24T23:16:43.411Z,1.80
2022-11-24T23:19:10.849Z,1.97
2022-11-24T23:21:38.792Z,2.17
2022-11-24T23:24:07.777Z,2.33
2022-11-24T23:26:39.298Z,2.53
2022-11-24T23:29:07.421Z,1.67
2022-11-24T23:31:34.774Z,1.70
2022-11-24T23:34:05.440Z,2.33
2022-11-24T23:36:33.530Z,1.80
2022-11-24T23:39:11.541Z,1.40
2022-11-24T23:41:38.869Z,1.50
2022-11-24T23:44:06.785Z,2.43
2022-11-24T23:46:34.046Z,1.03
2022-11-24T23:49:01.183Z,1.27
2022-11-24T23:51:31.664Z,2.00
2022-11-24T23:54:00.467Z,1.80
2022-11-24T23:56:32.654Z,2.10
2022-11-24T23:59:02.008Z,1.60
